Time;durP1;ratioP1;P1;durP2;ratioP2;P2;SDS_P1;SDS_P2;PMS_P1;PMS_P2;Temp;Humidity;BMP_temperature;BMP_pressure;BME280_temperature;BME280_humidity;BME280_pressure;Samples;Min_cycle;Max_cycle;Signal;HPM_P1;HPM_P2
2023/04/16 00:00:55;;;;;;;14.63;8.40;;;9.60;99.90;;;;;;5016072;28;20266;-69
2023/04/16 00:03:20;;;;;;;12.47;7.47;;;9.60;99.90;;;;;;4999238;28;20199;-69
2023/04/16 00:05:46;;;;;;;15.50;8.53;;;9.60;99.90;;;;;;5000117;28;20213;-69
2023/04/16 00:08:14;;;;;;;11.77;8.07;;;9.60;99.90;;;;;;5000095;28;20210;-69
2023/04/16 00:10:40;;;;;;;12.47;8.20;;;9.60;99.90;;;;;;4996859;28;20180;-68
2023/04/16 00:13:13;;;;;;;13.93;8.33;;;9.60;99.90;;;;;;5005127;28;20245;-69
2023/04/16 00:15:41;;;;;;;17.37;8.93;;;9.60;99.90;;;;;;5005772;28;20210;-69
2023/04/16 00:18:06;;;;;;;17.57;9.60;;;9.50;99.90;;;;;;5014530;28;20195;-67
2023/04/16 00:20:34;;;;;;;13.83;7.97;;;9.50;99.90;;;;;;4996906;28;20189;-67
2023/04/16 00:23:02;;;;;;;12.10;7.70;;;9.60;99.90;;;;;;5002244;28;20207;-68
2023/04/16 00:25:30;;;;;;;12.40;7.77;;;9.50;99.90;;;;;;5011783;28;20175;-69
2023/04/16 00:27:55;;;;;;;12.37;7.67;;;9.50;99.90;;;;;;5015636;28;20230;-64
2023/04/16 00:30:23;;;;;;;14.27;8.27;;;9.50;99.90;;;;;;4998911;28;20913;-68
2023/04/16 00:32:49;;;;;;;15.03;8.20;;;9.50;99.90;;;;;;4996588;28;20193;-69
2023/04/16 00:35:15;;;;;;;13.97;8.37;;;9.40;99.90;;;;;;5012652;28;20172;-66
2023/04/16 00:37:45;;;;;;;12.07;7.97;;;9.40;99.90;;;;;;4998643;28;20232;-68
2023/04/16 00:40:11;;;;;;;12.03;7.10;;;9.50;99.90;;;;;;5000275;28;20187;-69
2023/04/16 00:42:44;;;;;;;10.60;6.53;;;9.50;99.90;;;;;;5008582;28;20199;-69
2023/04/16 00:45:10;;;;;;;11.67;6.97;;;9.50;99.90;;;;;;5003198;28;20171;-69
2023/04/16 00:47:36;;;;;;;10.50;7.43;;;9.50;99.90;;;;;;4998817;28;20243;-69
2023/04/16 00:50:03;;;;;;;11.83;7.37;;;9.50;99.90;;;;;;4993719;28;20282;-69
2023/04/16 00:52:31;;;;;;;10.00;7.03;;;9.50;99.90;;;;;;4996142;28;20210;-69
2023/04/16 00:54:58;;;;;;;11.07;6.70;;;9.50;99.90;;;;;;4997313;28;20194;-69
2023/04/16 00:57:23;;;;;;;11.50;6.85;;;9.60;99.90;;;;;;5001635;28;20215;-71
2023/04/16 00:59:52;;;;;;;11.23;7.78;;;9.60;99.90;;;;;;5013198;28;20182;-71
2023/04/16 01:02:20;;;;;;;9.57;7.23;;;9.60;99.90;;;;;;4997865;28;20202;-69
2023/04/16 01:04:46;;;;;;;13.27;8.15;;;9.60;99.90;;;;;;4998251;28;20205;-67
2023/04/16 01:07:11;;;;;;;11.30;7.90;;;9.60;99.90;;;;;;5015199;28;20183;-69
2023/04/16 01:09:39;;;;;;;13.50;8.60;;;9.70;99.90;;;;;;4999036;28;20179;-70
2023/04/16 01:12:05;;;;;;;13.18;9.27;;;9.70;99.90;;;;;;5016283;28;20341;-70
2023/04/16 01:14:35;;;;;;;12.47;8.40;;;9.60;99.90;;;;;;4995441;28;20270;-69
2023/04/16 01:17:01;;;;;;;12.90;8.60;;;9.60;99.90;;;;;;5012816;28;20178;-65
2023/04/16 01:19:30;;;;;;;13.47;8.83;;;9.60;99.90;;;;;;4998618;28;20202;-70
2023/04/16 01:21:56;;;;;;;13.50;8.00;;;9.70;99.90;;;;;;5016187;28;20190;-70
2023/04/16 01:24:21;;;;;;;13.77;7.90;;;9.70;99.90;;;;;;4998923;28;20182;-69
2023/04/16 01:26:47;;;;;;;13.83;7.37;;;9.60;99.90;;;;;;4998713;28;20202;-71
2023/04/16 01:29:13;;;;;;;12.03;6.87;;;9.60;99.90;;;;;;4999017;28;20257;-68
2023/04/16 01:31:41;;;;;;;12.67;8.03;;;9.60;99.90;;;;;;4999477;28;20297;-67
2023/04/16 01:34:09;;;;;;;13.83;8.20;;;9.60;99.90;;;;;;5015282;28;20202;-67
2023/04/16 01:36:37;;;;;;;10.20;7.20;;;9.60;99.90;;;;;;4996884;28;20191;-65
2023/04/16 01:39:10;;;;;;;11.10;7.30;;;9.60;99.90;;;;;;4997124;28;20206;-65
2023/04/16 01:41:40;;;;;;;10.63;7.47;;;9.60;99.90;;;;;;5007784;28;20178;-65
2023/04/16 01:44:08;;;;;;;9.77;6.67;;;9.70;99.90;;;;;;4995282;28;20202;-65
2023/04/16 01:46:34;;;;;;;10.07;7.10;;;9.60;99.90;;;;;;5000143;28;20183;-66
2023/04/16 01:49:01;;;;;;;12.87;8.20;;;9.60;99.90;;;;;;4995952;28;20182;-65
2023/04/16 01:51:27;;;;;;;10.67;6.87;;;9.70;99.90;;;;;;5002012;28;20183;-66
2023/04/16 01:53:53;;;;;;;10.37;7.13;;;9.70;99.90;;;;;;5001865;28;20203;-66
2023/04/16 01:56:21;;;;;;;12.47;7.87;;;9.60;99.90;;;;;;5014842;28;20260;-66
2023/04/16 01:58:47;;;;;;;15.47;9.43;;;9.60;99.90;;;;;;5015517;28;20194;-66
2023/04/16 02:01:13;;;;;;;14.40;8.93;;;9.70;99.90;;;;;;4998240;28;20244;-66
2023/04/16 02:03:41;;;;;;;18.37;9.80;;;9.60;99.90;;;;;;5014211;28;20260;-66
2023/04/16 02:06:06;;;;;;;14.50;8.40;;;9.60;99.90;;;;;;4997961;28;20175;-66
2023/04/16 02:08:32;;;;;;;12.90;7.73;;;9.60;99.90;;;;;;4995271;28;20207;-66
2023/04/16 02:11:01;;;;;;;10.33;7.17;;;9.60;99.90;;;;;;5005254;28;20185;-66
2023/04/16 02:13:27;;;;;;;10.07;6.47;;;9.50;99.90;;;;;;5015399;28;20225;-66
2023/04/16 02:15:53;;;;;;;13.70;7.77;;;9.60;99.90;;;;;;4998231;28;20237;-66
2023/04/16 02:18:18;;;;;;;11.87;7.07;;;9.60;99.90;;;;;;4994939;28;20199;-66
2023/04/16 02:20:46;;;;;;;13.17;8.57;;;9.60;99.90;;;;;;5001850;28;20237;-66
2023/04/16 02:23:13;;;;;;;12.30;7.47;;;9.60;99.90;;;;;;5001624;28;20214;-67
2023/04/16 02:25:45;;;;;;;13.50;7.93;;;9.50;99.90;;;;;;4998005;28;20167;-66
2023/04/16 02:28:15;;;;;;;14.13;8.90;;;9.50;99.90;;;;;;4983035;28;20189;-66
2023/04/16 02:30:44;;;;;;;11.60;7.67;;;9.50;99.90;;;;;;4998272;28;20199;-67
2023/04/16 02:33:12;;;;;;;15.50;10.03;;;9.50;99.90;;;;;;4998385;28;20265;-67
2023/04/16 02:35:39;;;;;;;12.63;8.30;;;9.50;99.90;;;;;;5014639;28;20186;-67
2023/04/16 02:38:05;;;;;;;12.47;7.80;;;9.50;99.90;;;;;;5005009;28;20222;-66
2023/04/16 02:40:31;;;;;;;11.63;7.50;;;9.40;99.90;;;;;;5014192;28;20192;-67
2023/04/16 02:42:57;;;;;;;15.43;8.90;;;9.50;99.90;;;;;;4994477;28;20198;-68
2023/04/16 02:45:25;;;;;;;12.27;8.07;;;9.40;99.90;;;;;;5013378;28;20202;-67
2023/04/16 02:47:53;;;;;;;12.40;7.47;;;9.50;99.90;;;;;;5014234;28;20261;-67
2023/04/16 02:50:21;;;;;;;11.73;7.30;;;9.40;99.90;;;;;;5013369;28;20179;-65
2023/04/16 02:52:46;;;;;;;11.47;8.00;;;9.40;99.90;;;;;;4991634;28;20199;-65
2023/04/16 02:55:12;;;;;;;12.63;8.43;;;9.40;99.90;;;;;;4996802;28;20180;-65
2023/04/16 02:57:37;;;;;;;14.17;9.77;;;9.50;99.90;;;;;;5007457;28;20179;-65
2023/04/16 03:00:04;;;;;;;13.40;8.23;;;9.40;99.90;;;;;;5005373;28;20191;-65
2023/04/16 03:02:29;;;;;;;13.67;8.83;;;9.40;99.90;;;;;;5011606;28;20206;-65
2023/04/16 03:04:55;;;;;;;12.87;8.70;;;9.40;99.90;;;;;;5013532;28;20198;-65
2023/04/16 03:07:23;;;;;;;15.40;9.13;;;9.40;99.90;;;;;;5012873;28;20274;-66
2023/04/16 03:09:49;;;;;;;13.67;9.53;;;9.30;99.90;;;;;;5013993;28;20178;-65
2023/04/16 03:12:17;;;;;;;14.77;10.07;;;9.30;99.90;;;;;;4997742;28;20279;-65
2023/04/16 03:14:42;;;;;;;18.57;10.37;;;9.30;99.90;;;;;;5002726;28;20183;-65
2023/04/16 03:17:10;;;;;;;16.17;10.67;;;9.30;99.90;;;;;;4996285;28;20285;-65
2023/04/16 03:19:36;;;;;;;13.13;8.63;;;9.40;99.90;;;;;;5002574;28;20187;-65
2023/04/16 03:22:04;;;;;;;12.70;8.90;;;9.30;99.90;;;;;;4996231;28;20195;-65
2023/04/16 03:24:31;;;;;;;15.00;9.80;;;9.30;99.90;;;;;;4999720;28;20214;-66
2023/04/16 03:26:57;;;;;;;12.90;9.10;;;9.30;99.90;;;;;;5000710;28;20232;-65
2023/04/16 03:29:28;;;;;;;17.47;10.17;;;9.30;99.90;;;;;;5008818;28;20186;-66
2023/04/16 03:31:53;;;;;;;16.80;8.93;;;9.30;99.90;;;;;;4993060;28;20176;-66
2023/04/16 03:34:19;;;;;;;11.03;8.03;;;9.40;99.90;;;;;;5012569;28;20241;-66
2023/04/16 03:36:45;;;;;;;17.07;9.07;;;9.40;99.90;;;;;;4998181;28;20230;-64
2023/04/16 03:39:13;;;;;;;15.57;8.90;;;9.30;99.90;;;;;;4998502;28;20187;-66
2023/04/16 03:41:40;;;;;;;13.30;8.33;;;9.40;99.90;;;;;;5001477;28;20178;-67
2023/04/16 03:44:06;;;;;;;14.43;9.20;;;9.30;99.90;;;;;;5017197;28;20248;-66
2023/04/16 03:46:32;;;;;;;14.50;8.80;;;9.40;99.90;;;;;;5011171;28;20179;-65
2023/04/16 03:48:57;;;;;;;11.20;7.80;;;9.40;99.90;;;;;;5018559;28;20168;-65
2023/04/16 03:51:23;;;;;;;13.30;8.00;;;9.40;99.90;;;;;;4982869;28;20190;-66
2023/04/16 03:53:49;;;;;;;13.60;7.87;;;9.40;99.90;;;;;;5000769;28;20178;-66
2023/04/16 03:56:15;;;;;;;11.27;8.27;;;9.40;99.90;;;;;;4998749;28;20263;-66
2023/04/16 03:58:43;;;;;;;14.93;8.43;;;9.40;99.90;;;;;;5007577;28;20258;-65
2023/04/16 04:01:11;;;;;;;16.30;9.03;;;9.40;99.90;;;;;;4997396;28;20251;-66
2023/04/16 04:03:37;;;;;;;15.77;8.67;;;9.30;99.90;;;;;;5015840;28;20203;-65
2023/04/16 04:06:09;;;;;;;14.37;9.17;;;9.40;99.90;;;;;;5011622;28;20185;-66
2023/04/16 04:08:35;;;;;;;13.73;8.50;;;9.40;99.90;;;;;;5012430;28;20236;-66
2023/04/16 04:11:05;;;;;;;13.87;8.20;;;9.50;99.90;;;;;;5015293;28;20194;-66
2023/04/16 04:13:31;;;;;;;14.37;8.07;;;9.40;99.90;;;;;;4990431;28;20182;-65
2023/04/16 04:15:59;;;;;;;14.00;7.70;;;9.40;99.90;;;;;;5017136;28;20183;-66
2023/04/16 04:18:24;;;;;;;15.37;9.53;;;9.50;99.90;;;;;;4995725;28;20270;-66
2023/04/16 04:20:50;;;;;;;15.50;9.33;;;9.40;99.90;;;;;;5014851;28;20195;-66
2023/04/16 04:23:23;;;;;;;18.48;9.05;;;9.40;99.90;;;;;;5002391;28;20198;-65
2023/04/16 04:25:51;;;;;;;13.07;8.77;;;9.50;99.90;;;;;;5007690;28;20194;-67
2023/04/16 04:28:19;;;;;;;16.73;9.50;;;9.40;99.90;;;;;;5017020;28;20177;-67
2023/04/16 04:30:45;;;;;;;16.77;11.33;;;9.40;99.90;;;;;;5015274;28;20205;-66
2023/04/16 04:33:10;;;;;;;19.77;12.83;;;9.50;99.90;;;;;;5009912;28;20257;-67
2023/04/16 04:35:38;;;;;;;19.53;12.90;;;9.50;99.90;;;;;;5000037;28;20183;-64
2023/04/16 04:38:06;;;;;;;23.37;14.67;;;9.40;99.90;;;;;;5009594;28;20267;-65
2023/04/16 04:40:34;;;;;;;21.73;13.30;;;9.40;99.90;;;;;;5019622;28;20182;-67
2023/04/16 04:42:59;;;;;;;22.27;13.70;;;9.50;99.90;;;;;;5013356;28;20245;-67
2023/04/16 04:45:25;;;;;;;22.97;14.73;;;9.50;99.90;;;;;;4999375;28;20226;-66
2023/04/16 04:47:51;;;;;;;23.50;14.77;;;9.50;99.90;;;;;;4999501;28;20233;-67
2023/04/16 04:50:17;;;;;;;25.73;16.43;;;9.50;99.90;;;;;;4999157;28;20174;-67
2023/04/16 04:52:45;;;;;;;25.87;15.23;;;9.50;99.90;;;;;;5006103;28;20278;-67
2023/04/16 04:55:12;;;;;;;23.30;13.33;;;9.50;99.90;;;;;;4996449;28;20241;-67
2023/04/16 04:57:38;;;;;;;21.37;13.00;;;9.50;99.90;;;;;;4990660;28;20204;-67
2023/04/16 05:00:09;;;;;;;20.17;12.63;;;9.60;99.90;;;;;;5004686;28;20278;-67
2023/04/16 05:02:35;;;;;;;19.53;11.97;;;9.60;99.90;;;;;;4998443;28;20194;-67
2023/04/16 05:05:00;;;;;;;21.97;12.00;;;9.60;99.90;;;;;;5005168;28;20220;-67
2023/04/16 05:07:28;;;;;;;20.90;12.27;;;9.60;99.90;;;;;;4999154;28;20238;-65
2023/04/16 05:09:54;;;;;;;17.53;11.87;;;9.70;99.90;;;;;;4999168;28;20178;-67
2023/04/16 05:12:22;;;;;;;16.87;11.50;;;9.60;99.90;;;;;;5014983;28;20179;-66
2023/04/16 05:14:47;;;;;;;19.10;11.77;;;9.60;99.90;;;;;;5007173;28;20233;-67
2023/04/16 05:17:15;;;;;;;18.67;12.30;;;9.60;99.90;;;;;;4998832;28;20206;-67
2023/04/16 05:19:41;;;;;;;17.43;11.23;;;9.80;99.90;;;;;;5007279;28;20214;-67
2023/04/16 05:22:09;;;;;;;18.33;12.00;;;9.70;99.90;;;;;;4992141;28;20230;-67
2023/04/16 05:24:35;;;;;;;19.03;11.50;;;9.70;99.90;;;;;;5001474;28;20277;-65
2023/04/16 05:27:05;;;;;;;18.27;11.20;;;9.70;99.90;;;;;;4998608;28;20254;-65
2023/04/16 05:29:30;;;;;;;17.33;11.17;;;9.70;99.90;;;;;;5014680;28;20195;-67
2023/04/16 05:31:56;;;;;;;16.27;10.93;;;9.70;99.90;;;;;;4998524;28;20178;-67
2023/04/16 05:34:22;;;;;;;17.83;10.13;;;9.70;99.90;;;;;;5006658;28;20183;-67
2023/04/16 05:36:49;;;;;;;16.07;10.90;;;9.70;99.90;;;;;;5008124;28;20195;-67
2023/04/16 05:39:16;;;;;;;19.60;11.50;;;9.70;99.90;;;;;;5008412;28;20187;-66
2023/04/16 05:41:42;;;;;;;19.43;12.00;;;9.80;99.90;;;;;;4995840;28;20179;-66
2023/04/16 05:44:08;;;;;;;18.50;11.73;;;9.60;99.90;;;;;;5012267;28;20190;-66
2023/04/16 05:46:35;;;;;;;16.43;10.87;;;9.70;99.90;;;;;;4994648;28;20255;-66
2023/04/16 05:49:01;;;;;;;19.87;11.53;;;9.80;99.90;;;;;;4997827;28;20209;-66
2023/04/16 05:51:27;;;;;;;19.70;12.23;;;9.60;99.90;;;;;;5014745;28;20174;-66
2023/04/16 05:53:52;;;;;;;17.90;10.70;;;9.60;99.90;;;;;;5003013;28;20240;-66
2023/04/16 05:56:18;;;;;;;19.23;11.40;;;9.60;99.90;;;;;;4997984;28;20210;-66
2023/04/16 05:58:46;;;;;;;19.33;11.43;;;9.60;99.90;;;;;;5014129;28;20190;-66
2023/04/16 06:01:11;;;;;;;21.53;12.33;;;9.70;99.90;;;;;;5008508;28;20290;-66
2023/04/16 06:03:37;;;;;;;19.70;12.03;;;9.60;99.90;;;;;;4996854;28;20296;-66
2023/04/16 06:06:03;;;;;;;22.10;13.13;;;9.70;99.90;;;;;;4998133;28;20213;-66
2023/04/16 06:08:31;;;;;;;22.43;12.63;;;9.70;99.90;;;;;;4999291;28;20269;-66
2023/04/16 06:10:58;;;;;;;21.43;11.73;;;9.70;99.90;;;;;;4998076;28;20179;-66
2023/04/16 06:13:24;;;;;;;19.77;12.30;;;9.70;99.90;;;;;;4997994;28;20187;-67
2023/04/16 06:15:50;;;;;;;19.40;12.27;;;9.70;99.90;;;;;;4995114;28;20198;-66
2023/04/16 06:18:15;;;;;;;19.67;11.53;;;9.70;99.90;;;;;;5002311;28;20256;-67
2023/04/16 06:20:41;;;;;;;21.93;12.07;;;9.70;99.90;;;;;;4996787;28;20229;-66
2023/04/16 06:23:09;;;;;;;16.97;11.63;;;9.70;99.90;;;;;;4996121;28;20234;-67
2023/04/16 06:25:37;;;;;;;18.17;10.43;;;9.80;99.90;;;;;;4997184;28;20182;-67
2023/04/16 06:28:05;;;;;;;17.03;10.43;;;9.70;99.90;;;;;;5013138;28;20197;-67
2023/04/16 06:30:31;;;;;;;16.98;9.98;;;9.80;99.90;;;;;;5017724;28;20217;-67
2023/04/16 06:32:57;;;;;;;17.17;10.53;;;9.70;99.90;;;;;;4996637;28;20224;-66
2023/04/16 06:35:25;;;;;;;16.50;10.13;;;9.80;99.90;;;;;;5007890;28;20178;-67
2023/04/16 06:37:53;;;;;;;16.80;11.10;;;9.80;99.90;;;;;;5013140;28;20174;-67
2023/04/16 06:40:18;;;;;;;23.15;12.68;;;9.80;99.90;;;;;;4997670;28;20271;-67
2023/04/16 06:42:44;;;;;;;18.23;10.40;;;9.80;99.90;;;;;;4997222;28;20289;-67
2023/04/16 06:45:11;;;;;;;17.30;10.80;;;9.80;99.90;;;;;;5014304;28;20228;-68
2023/04/16 06:47:41;;;;;;;17.02;11.23;;;9.80;99.90;;;;;;4992872;28;20175;-65
2023/04/16 06:50:09;;;;;;;17.63;10.93;;;9.80;99.90;;;;;;5007219;28;20194;-65
2023/04/16 06:52:37;;;;;;;16.67;10.17;;;9.80;99.90;;;;;;4997527;28;20236;-67
2023/04/16 06:55:03;;;;;;;17.33;10.20;;;9.80;99.90;;;;;;4997814;28;20197;-67
2023/04/16 06:57:28;;;;;;;14.27;9.10;;;9.80;99.90;;;;;;4998002;28;20198;-67
2023/04/16 06:59:54;;;;;;;17.60;10.15;;;9.80;99.90;;;;;;5000760;28;20253;-67
2023/04/16 07:02:20;;;;;;;15.43;10.03;;;9.90;99.90;;;;;;5001891;28;20209;-67
2023/04/16 07:04:45;;;;;;;14.87;10.07;;;9.90;99.90;;;;;;5001963;28;20175;-68
2023/04/16 07:07:11;;;;;;;15.30;9.10;;;9.90;99.90;;;;;;5017671;28;20186;-67
2023/04/16 07:09:36;;;;;;;17.45;9.80;;;9.90;99.90;;;;;;5018178;28;20195;-67
2023/04/16 07:12:02;;;;;;;16.60;10.07;;;9.80;99.90;;;;;;5010550;28;20179;-67
2023/04/16 07:14:28;;;;;;;17.03;10.17;;;9.90;99.90;;;;;;5017527;28;20230;-67
2023/04/16 07:16:55;;;;;;;13.80;9.70;;;9.90;99.90;;;;;;5016701;28;20226;-68
2023/04/16 07:19:21;;;;;;;14.40;9.37;;;9.90;99.90;;;;;;5009113;28;20197;-69
2023/04/16 07:21:49;;;;;;;15.43;9.70;;;9.90;99.90;;;;;;5003498;28;20179;-66
2023/04/16 07:24:17;;;;;;;14.45;9.80;;;9.90;99.90;;;;;;5018754;28;20174;-66
2023/04/16 07:26:42;;;;;;;16.02;9.90;;;9.90;99.90;;;;;;5006404;28;20179;-66
2023/04/16 07:29:08;;;;;;;14.93;9.93;;;9.90;99.90;;;;;;5002678;28;20210;-66
2023/04/16 07:31:34;;;;;;;13.90;8.70;;;9.90;99.90;;;;;;5005703;28;20229;-66
2023/04/16 07:34:00;;;;;;;13.13;8.30;;;9.90;99.90;;;;;;5012564;28;20183;-66
2023/04/16 07:36:27;;;;;;;16.55;9.82;;;9.90;99.90;;;;;;5001520;28;20234;-66
2023/04/16 07:38:52;;;;;;;16.17;10.60;;;9.90;99.90;;;;;;5016067;28;20183;-67
2023/04/16 07:41:18;;;;;;;16.73;10.50;;;9.90;99.90;;;;;;5001340;28;20250;-65
2023/04/16 07:43:46;;;;;;;14.98;9.20;;;9.90;99.90;;;;;;5009690;28;20222;-66
2023/04/16 07:46:16;;;;;;;18.65;12.48;;;9.90;99.90;;;;;;5006283;28;20202;-66
2023/04/16 07:48:45;;;;;;;15.93;11.07;;;9.90;99.90;;;;;;5006124;28;20221;-66
2023/04/16 07:51:12;;;;;;;19.13;12.77;;;10.00;99.90;;;;;;5011076;28;20233;-66
2023/04/16 07:53:38;;;;;;;22.45;14.00;;;10.00;99.90;;;;;;5007884;28;20232;-66
2023/04/16 07:56:04;;;;;;;23.92;15.00;;;10.00;99.90;;;;;;5006256;28;20214;-66
2023/04/16 07:58:29;;;;;;;24.43;15.03;;;10.00;99.90;;;;;;5009635;28;20203;-66
2023/04/16 08:00:57;;;;;;;21.30;13.35;;;10.00;99.90;;;;;;5000549;28;20182;-66
2023/04/16 08:03:25;;;;;;;23.40;14.05;;;10.10;99.90;;;;;;5000351;28;20206;-66
2023/04/16 08:05:53;;;;;;;18.73;12.80;;;10.10;99.90;;;;;;5000088;28;20179;-67
2023/04/16 08:08:19;;;;;;;16.17;11.00;;;10.10;99.90;;;;;;5007111;28;20192;-67
2023/04/16 08:10:54;;;;;;;16.00;11.23;;;10.10;99.90;;;;;;4991658;28;20202;-66
2023/04/16 08:13:22;;;;;;;16.15;10.10;;;10.10;99.90;;;;;;5016454;28;20166;-67
2023/04/16 08:15:48;;;;;;;14.13;10.38;;;10.10;99.90;;;;;;4999472;28;20187;-67
2023/04/16 08:18:16;;;;;;;12.10;8.83;;;10.10;99.90;;;;;;5011122;28;20232;-66
2023/04/16 08:20:44;;;;;;;12.60;8.90;;;10.20;99.90;;;;;;5000099;28;20244;-67
2023/04/16 08:23:10;;;;;;;12.23;8.85;;;10.20;99.90;;;;;;5005709;28;20206;-67
2023/04/16 08:25:35;;;;;;;12.37;9.23;;;10.20;99.90;;;;;;5000062;28;20203;-67
2023/04/16 08:28:01;;;;;;;12.52;9.63;;;10.20;99.90;;;;;;5012505;28;20176;-67
2023/04/16 08:30:27;;;;;;;11.95;8.30;;;10.20;99.90;;;;;;4997175;28;20179;-67
2023/04/16 08:32:53;;;;;;;11.35;8.02;;;10.20;99.90;;;;;;5016239;28;20183;-66
2023/04/16 08:35:18;;;;;;;11.32;8.40;;;10.20;99.90;;;;;;5000070;28;20208;-66
2023/04/16 08:37:44;;;;;;;13.05;8.77;;;10.20;99.90;;;;;;5000123;28;20182;-67
2023/04/16 08:40:10;;;;;;;12.57;8.65;;;10.20;99.90;;;;;;4998989;28;20183;-65
2023/04/16 08:42:54;;;;;;;14.07;9.02;;;10.20;99.90;;;;;;5012468;28;20210;-67
2023/04/16 08:45:20;;;;;;;11.43;8.63;;;10.20;99.90;;;;;;5001261;28;20199;-66
2023/04/16 08:47:49;;;;;;;12.45;8.40;;;10.20;99.90;;;;;;5008029;28;20171;-66
2023/04/16 08:50:16;;;;;;;13.95;9.73;;;10.30;99.90;;;;;;4998966;28;20241;-65
2023/04/16 08:52:49;;;;;;;16.77;11.70;;;10.40;99.90;;;;;;4999676;28;20181;-65
2023/04/16 08:55:22;;;;;;;14.80;10.88;;;10.30;99.90;;;;;;5011768;28;20240;-65
2023/04/16 08:57:53;;;;;;;15.55;10.80;;;10.40;99.90;;;;;;4993970;28;20179;-65
2023/04/16 09:00:22;;;;;;;17.73;11.60;;;10.40;99.90;;;;;;5004941;28;20260;-66
2023/04/16 09:02:49;;;;;;;18.85;11.75;;;10.40;99.90;;;;;;4998480;28;20206;-65
2023/04/16 09:05:19;;;;;;;17.27;11.93;;;10.40;99.90;;;;;;4997444;28;20194;-66
2023/04/16 09:07:46;;;;;;;16.95;12.07;;;10.40;99.90;;;;;;4998578;28;20211;-66
2023/04/16 09:10:16;;;;;;;18.23;12.18;;;10.50;99.90;;;;;;4998128;28;20189;-65
2023/04/16 09:12:43;;;;;;;18.85;12.38;;;10.50;99.90;;;;;;4997170;28;20178;-67
2023/04/16 09:15:12;;;;;;;19.98;13.65;;;10.50;99.90;;;;;;5015265;28;20321;-67
2023/04/16 09:17:39;;;;;;;21.90;14.23;;;10.60;99.90;;;;;;4994734;28;20211;-66
2023/04/16 09:20:09;;;;;;;22.40;15.43;;;10.70;99.90;;;;;;5012502;28;20187;-65
2023/04/16 09:22:35;;;;;;;22.42;14.55;;;10.70;99.90;;;;;;5002834;28;20190;-66
2023/04/16 09:25:01;;;;;;;21.65;15.38;;;10.70;99.90;;;;;;5012379;28;20198;-66
2023/04/16 09:27:27;;;;;;;21.00;14.30;;;10.80;99.90;;;;;;5014484;28;20177;-66
2023/04/16 09:29:53;;;;;;;21.73;15.23;;;10.80;99.90;;;;;;5025980;28;20277;-66
2023/04/16 09:32:27;;;;;;;25.00;16.20;;;10.90;99.90;;;;;;4989974;28;20246;-66
2023/04/16 09:34:57;;;;;;;22.48;14.82;;;11.10;99.90;;;;;;5001381;28;20183;-66
2023/04/16 09:37:24;;;;;;;23.52;15.63;;;11.00;99.90;;;;;;4997536;28;20195;-66
2023/04/16 09:39:55;;;;;;;26.38;17.10;;;11.00;99.90;;;;;;4994835;28;20184;-66
2023/04/16 09:42:28;;;;;;;25.00;17.20;;;11.10;99.90;;;;;;4996919;28;20230;-66
2023/04/16 09:44:54;;;;;;;26.27;17.55;;;11.10;99.90;;;;;;4994236;28;20273;-70
2023/04/16 09:47:24;;;;;;;25.23;17.25;;;11.10;99.90;;;;;;5001279;28;20173;-70
2023/04/16 09:49:49;;;;;;;25.90;18.33;;;11.10;99.90;;;;;;5022063;28;20253;-71
2023/04/16 09:52:19;;;;;;;25.58;17.48;;;11.20;99.90;;;;;;5000504;28;20210;-71
2023/04/16 09:54:50;;;;;;;26.77;16.92;;;11.20;99.90;;;;;;5016020;28;20218;-68
2023/04/16 09:57:23;;;;;;;25.08;18.08;;;11.30;99.90;;;;;;5015453;28;20249;-69
2023/04/16 10:00:03;;;;;;;23.60;17.25;;;11.30;99.90;;;;;;5000314;28;20270;-69
2023/04/16 10:02:33;;;;;;;23.70;17.13;;;11.40;99.90;;;;;;4996800;28;20210;-69
2023/04/16 10:05:01;;;;;;;25.60;16.63;;;11.50;99.90;;;;;;5011535;28;20190;-67
2023/04/16 10:07:34;;;;;;;25.15;16.92;;;11.50;99.90;;;;;;5003958;28;20173;-69
2023/04/16 10:10:02;;;;;;;24.92;17.52;;;11.60;99.90;;;;;;5006613;28;20270;-69
2023/04/16 10:12:33;;;;;;;29.65;18.88;;;11.70;99.90;;;;;;4990755;28;20186;-69
2023/04/16 10:14:59;;;;;;;28.33;18.67;;;11.70;99.90;;;;;;5007638;28;20182;-68
2023/04/16 10:17:30;;;;;;;26.92;17.85;;;11.80;99.90;;;;;;5001473;28;20195;-68
2023/04/16 10:20:02;;;;;;;28.40;19.02;;;11.90;99.90;;;;;;5005305;28;20199;-68
2023/04/16 10:22:33;;;;;;;28.77;19.58;;;11.90;99.90;;;;;;5002058;28;20290;-67
2023/04/16 10:25:01;;;;;;;33.05;21.58;;;12.00;99.90;;;;;;5010682;28;20179;-67
2023/04/16 10:27:27;;;;;;;30.38;20.38;;;12.10;99.90;;;;;;5004120;28;20198;-68
2023/04/16 10:29:57;;;;;;;29.73;20.50;;;12.00;99.90;;;;;;4996729;28;20244;-69
2023/04/16 10:32:27;;;;;;;34.20;22.42;;;12.10;99.90;;;;;;5001354;28;20239;-68
2023/04/16 10:34:54;;;;;;;37.22;23.38;;;12.10;99.90;;;;;;5013770;28;20213;-67
2023/04/16 10:37:31;;;;;;;35.30;22.38;;;12.10;99.90;;;;;;5019588;28;20185;-63
2023/04/16 10:40:02;;;;;;;30.63;21.60;;;12.10;99.90;;;;;;5005661;28;20178;-70
2023/04/16 10:42:30;;;;;;;28.88;19.88;;;12.10;99.90;;;;;;5014386;28;20194;-67
2023/04/16 10:44:59;;;;;;;29.75;20.00;;;12.10;99.90;;;;;;4995883;28;20238;-68
2023/04/16 10:47:25;;;;;;;29.27;20.90;;;12.10;99.90;;;;;;5021826;28;20278;-68
2023/04/16 10:49:51;;;;;;;27.75;20.02;;;12.20;99.90;;;;;;5010193;28;20269;-68
2023/04/16 10:52:16;;;;;;;27.73;20.17;;;12.20;99.90;;;;;;5008074;28;20182;-67
2023/04/16 10:54:44;;;;;;;29.58;20.63;;;12.30;99.90;;;;;;4988685;28;20206;-66
2023/04/16 10:57:15;;;;;;;30.08;20.65;;;12.40;99.90;;;;;;4999824;28;20190;-67
2023/04/16 10:59:43;;;;;;;29.10;20.55;;;12.40;99.90;;;;;;5002675;28;20181;-67
2023/04/16 11:02:14;;;;;;;29.05;21.90;;;12.40;99.90;;;;;;5005860;28;20193;-66
2023/04/16 11:04:45;;;;;;;26.65;20.38;;;12.50;99.90;;;;;;5005239;28;20497;-68
2023/04/16 11:07:15;;;;;;;29.65;21.17;;;12.60;99.90;;;;;;5011271;28;20167;-68
2023/04/16 11:09:46;;;;;;;27.33;20.15;;;12.60;99.90;;;;;;5010248;28;20443;-67
2023/04/16 11:12:26;;;;;;;25.15;19.30;;;12.60;99.90;;;;;;5000362;28;20243;-68
2023/04/16 11:15:05;;;;;;;25.83;19.55;;;12.70;99.90;;;;;;5002929;28;20203;-68
2023/04/16 11:17:44;;;;;;;26.00;20.55;;;12.70;99.90;;;;;;5016223;28;20225;-68
2023/04/16 11:20:28;;;;;;;24.58;19.27;;;12.70;99.90;;;;;;5014229;28;20254;-68
2023/04/16 11:22:58;;;;;;;24.13;17.23;;;12.80;99.90;;;;;;5011562;28;20281;-68
2023/04/16 11:25:28;;;;;;;22.05;17.45;;;12.80;99.90;;;;;;5002509;28;20239;-67
2023/04/16 11:28:00;;;;;;;23.52;17.63;;;12.90;99.90;;;;;;5023270;28;20294;-68
2023/04/16 11:30:32;;;;;;;20.73;16.98;;;12.90;99.90;;;;;;5002040;28;20240;-69
2023/04/16 11:32:58;;;;;;;23.23;17.40;;;12.90;99.90;;;;;;5016422;28;20200;-68
2023/04/16 11:35:24;;;;;;;19.70;16.67;;;13.00;99.90;;;;;;5016103;28;20206;-68
2023/04/16 11:37:57;;;;;;;21.60;16.50;;;13.00;99.90;;;;;;5010823;28;20178;-68
2023/04/16 11:40:24;;;;;;;19.52;15.80;;;13.10;99.90;;;;;;5008561;28;20188;-69
2023/04/16 11:42:52;;;;;;;22.90;16.63;;;13.10;99.90;;;;;;4996857;28;20226;-64
2023/04/16 11:45:19;;;;;;;22.65;17.50;;;13.20;99.90;;;;;;5005511;28;20182;-68
2023/04/16 11:47:53;;;;;;;23.73;18.17;;;13.20;99.90;;;;;;4994013;28;20213;-67
2023/04/16 11:50:22;;;;;;;24.52;18.42;;;13.30;99.90;;;;;;5000435;28;20216;-67
2023/04/16 11:52:49;;;;;;;23.92;17.80;;;13.30;99.90;;;;;;5011037;28;20334;-68
2023/04/16 11:55:17;;;;;;;26.23;17.83;;;13.30;99.90;;;;;;5013151;28;20209;-68
2023/04/16 11:57:46;;;;;;;24.45;18.98;;;13.30;99.90;;;;;;4995676;28;20260;-65
2023/04/16 12:00:15;;;;;;;25.75;19.38;;;13.40;99.90;;;;;;4999063;28;20264;-68
2023/04/16 12:02:43;;;;;;;26.50;21.60;;;13.40;99.90;;;;;;4998348;28;20206;-64
2023/04/16 12:05:30;;;;;;;25.98;19.95;;;13.50;99.90;;;;;;4996769;28;20261;-67
2023/04/16 12:08:00;;;;;;;26.63;21.40;;;13.50;99.90;;;;;;5013971;28;20187;-64
2023/04/16 12:10:26;;;;;;;26.95;20.40;;;13.60;99.90;;;;;;5012365;28;20202;-66
2023/04/16 12:12:52;;;;;;;25.92;19.63;;;13.60;99.90;;;;;;4998128;28;20232;-67
2023/04/16 12:15:20;;;;;;;25.67;19.35;;;13.70;99.90;;;;;;5009420;28;20201;-67
2023/04/16 12:17:46;;;;;;;22.08;17.85;;;13.70;99.90;;;;;;5001433;28;20202;-68
2023/04/16 12:20:14;;;;;;;23.02;18.33;;;13.70;99.90;;;;;;5003112;28;20182;-66
2023/04/16 12:22:44;;;;;;;23.67;19.20;;;13.60;99.90;;;;;;5016728;28;20198;-68
2023/04/16 12:25:12;;;;;;;25.25;20.08;;;13.70;99.90;;;;;;4998331;28;20189;-67
2023/04/16 12:27:54;;;;;;;22.42;17.40;;;13.70;99.90;;;;;;5023655;28;20174;-64
2023/04/16 12:30:26;;;;;;;24.15;19.15;;;13.80;99.90;;;;;;4998464;28;20285;-65
2023/04/16 12:33:15;;;;;;;22.98;18.92;;;13.90;99.90;;;;;;5017044;28;20282;-69
2023/04/16 12:35:42;;;;;;;28.65;20.92;;;13.90;99.90;;;;;;4998795;28;20598;-67
2023/04/16 12:38:08;;;;;;;22.27;18.70;;;13.90;99.90;;;;;;5000572;28;20191;-66
2023/04/16 12:40:37;;;;;;;25.45;19.48;;;14.00;99.90;;;;;;5005628;28;20181;-68